Create Custom Reports and Graphics: Custom Report

Upper Lake

Current Conditions

5/19/24 7:45 AM (-07:00)
Updated Every 15 Minutes
Temp 51.5 °F   4.1
RH 79 %   19
Dew Pt 45.3 °F   10.0
Wet Bulb 48.8 °F   7.9
Wind Dir ESE | 104 °
Wind Spd 3.5 mph   3.0
Wind Gust 6.8 mph   5.5
BatVolt 12.5 V   0.0
Month Precip 1.03 In
Season Precip 38.10 In

Today & Yesterday

Midnight to Midnight

5/19/24 7:45 AM (-07:00)
Updated Every 15 Minutes
Daily Max Temp 60.0 °F   3.5
Time of Max Temp 0114
Daily Min Temp 42.9 °F   7.1
Time of Min Temp 0615
Daily Max Wind 17.2 mph   14.4
Time of Max Wind 0202
Max Wind Dir N | 8 °
Daily Rain 0.00 In
Daily Leaf Wet 0.0 Hrs   5.9
Yest MaxT 82.9 °F
Yest MinT 50.0 °F
Yest MaxGst 18.5 mph
Yest Precip 0.00 In
Yest Leaf Wet 5.9 Hrs

Last 30 Days

Upper Lake

Daily Data | America/Los_Angeles
as of 5/19/24 7:51 AM PDT
Date Daily Max Temp (°F) Time of Max Temp Daily Min Temp (°F) Time of Min Temp Daily Rain (In) Month Precip (In) Season Precip (In) Wind Spd (mph) Daily Max Wind (mph) Time of Max Wind Max Wind Dir (°) Dew Pt (°F) Max RH (%) Min RH (%) Hrs <= 32F (hrs) Hrs <= 28F (hrs) Daily Leaf Wet (Hrs) Degree Hrs (hrs) Hrs 70-85F (hrs) Hrs > 95F (hrs) Powdery Mildew Stress (pts) Storm Total (In) Daily Max Rain Intensity (In/Hr) Time of Max Rain Intensity Max 1 Min Rain (In) Max 1 Min Rain Time Max 15 Min Rain (In) Max 15 Min Precip Time Max 60 Min Rain (In) Max 60 Min Rain Time MinBV Day (V)
5/18/24 82.9 1550 50.0 0608 0.00 1.03 38.10 3.0 18.5 1911 WNW | 290 52.6 99 35 0.0 0.0 5.9 147.3 10.99 0.00 100 - - - - - - - - - 12.3
5/17/24 85.7 1635 48.2 0549 0.00 1.03 38.10 1.8 13.2 2002 NW | 311 55.6 100 39 0.0 0.0 6.1 164.2 10.29 0.00 100 - - - - - - - - - 12.3
5/16/24 83.5 1550 48.4 0553 0.00 1.03 38.10 2.4 15.0 1532 WNW | 291 55.0 99 42 0.0 0.0 4.7 157.9 10.82 0.00 90 - - - - - - - - - 12.2
5/15/24 90.4 1545 47.7 0634 0.00 1.03 38.10 1.6 17.1 1633 NW | 307 53.1 99 25 0.0 0.0 3.5 208.4 3.10 0.00 70 - - - - - - - - - 12.3
5/14/24 87.9 1605 45.3 0612 0.00 1.03 38.10 1.7 11.7 1446 N | 0 52.6 99 29 0.0 0.0 6.3 177.5 4.28 0.00 80 - - - - - - - - - 12.3
5/13/24 85.0 1615 41.5 0548 0.00 1.03 38.10 2.1 11.7 1750 NW | 326 47.6 99 15 0.0 0.0 4.5 149.4 10.18 0.00 90 - - - - - - - - - 12.2
5/12/24 83.4 1440 43.8 0514 0.00 1.03 38.10 2.1 13.8 1818 WSW | 254 47.5 99 27 0.0 0.0 5.0 146.4 10.31 0.00 70 - - - - - - - - - 12.3
5/11/24 87.7 1634 43.4 0601 0.00 1.03 38.10 2.0 16.4 1729 WNW | 302 47.0 99 16 0.0 0.0 3.9 171.5 3.38 0.00 50 - - - - - - - - - 12.3
5/10/24 84.9 1802 42.0 0458 0.00 1.03 38.10 2.2 12.7 1308 SSE | 168 45.3 98 19 0.0 0.0 2.3 157.4 10.83 0.00 60 - - - - - - - - - 12.3
5/9/24 80.6 1733 46.4 0050 0.00 1.03 38.10 2.5 17.4 0120 N | 355 39.8 91 22 0.0 0.0 0.0 100.1 8.65 0.00 40 - - - - - - - - - 12.3
5/8/24 76.6 1809 35.4 0605 0.00 1.03 38.10 2.8 18.1 1913 N | 9 36.8 99 17 0.0 0.0 4.0 64.0 6.65 0.00 20 - - - - - - - - - 12.3
5/7/24 71.1 1614 36.4 0630 0.00 1.03 38.10 2.7 12.4 1438 W | 275 41.7 96 33 0.0 0.0 0.0 17.8 0.37 0.00 0 - - - - - - - - - 12.3
5/6/24 63.9 1446 32.1 0602 0.00 1.03 38.10 3.0 21.6 1811 W | 261 39.9 99 39 0.0 0.0 5.2 0.0 0.00 0.00 0 - - - - - - - - - 12.4
5/5/24 59.7 1529 34.9 0648 0.00 1.03 38.10 4.4 19.6 1355 WSW | 257 36.5 93 41 0.0 0.0 0.0 0.0 0.00 0.00 0 - - - - - - - - - 12.3
5/4/24 53.8 0124 40.2 0033 1.03 1.03 38.10 3.5 20.4 0655 NNE | 13 41.9 95 71 0.0 0.0 9.7 0.0 0.00 0.00 0 1.03 2.25 0647 0.02 0650 0.15 0700 0.27 0710 12.2
5/3/24 74.0 1509 40.9 0642 0.00 0.00 37.07 4.0 18.7 1612 WNW | 293 44.9 96 29 0.0 0.0 0.0 38.3 4.45 0.00 0 - - - - - - - - - 12.4
5/2/24 71.6 1407 48.0 0542 0.00 0.00 37.07 6.1 25.1 1233 N | 349 45.9 86 44 0.0 0.0 0.0 24.2 0.70 0.00 0 - - - - - - - - - 12.3
5/1/24 73.8 1444 33.6 0522 0.00 0.00 37.07 3.6 19.0 1653 NW | 304 36.7 98 20 0.0 0.0 4.5 36.6 4.03 0.00 0 - - - - - - - - - 12.3
4/30/24 69.0 1455 36.0 0634 0.00 1.75 37.07 4.7 20.6 1331 NNW | 334 38.6 96 28 0.0 0.0 0.0 6.7 0.00 0.00 0 - - - - - - - - - 12.3
4/29/24 66.9 1605 42.8 0059 0.00 1.75 37.07 6.6 28.5 0925 SW | 236 39.6 85 28 0.0 0.0 0.0 1.1 0.00 0.00 10 - - - - - - - - - 12.4
4/28/24 70.2 1453 38.6 0619 0.00 1.75 37.07 5.7 21.8 1328 NW | 321 43.2 99 25 0.0 0.0 0.4 15.2 0.08 0.00 20 - - - - - - - - - 12.3
4/27/24 66.3 1345 35.9 0637 0.00 1.75 37.07 4.2 24.8 1359 NW | 311 43.0 99 46 0.0 0.0 2.9 0.0 0.00 0.00 30 - - - - - - - - - 12.3
4/26/24 61.0 1534 43.5 0045 0.02 1.75 37.07 4.6 22.5 1456 WSW | 246 45.0 96 55 0.0 0.0 2.7 0.0 0.00 0.00 40 - 0.01 0317 0.01 0427 0.01 0441 0.01 0526 12.3
4/25/24 64.0 1440 45.8 0559 0.00 1.73 37.05 4.6 21.3 1832 NW | 310 45.4 95 51 0.0 0.0 0.0 0.0 0.00 0.00 50 - - - - - - - - - 12.3
4/24/24 66.7 1623 49.9 0427 0.00 1.73 37.05 3.1 15.6 1721 NNW | 343 48.7 94 54 0.0 0.0 0.0 0.0 0.00 0.00 60 - - - - - - - - - 12.3
4/23/24 66.0 1448 48.2 0606 0.00 1.73 37.05 3.3 13.4 1626 ESE | 122 48.9 95 60 0.0 0.0 0.0 0.0 0.00 0.00 70 - - - - - - - - - 12.3
4/22/24 81.8 1801 43.1 0638 0.00 1.73 37.05 2.2 16.1 1815 NNW | 336 48.4 99 17 0.0 0.0 6.1 114.0 8.92 0.00 80 - - - - - - - - - 12.3
4/21/24 81.4 1730 38.7 0627 0.00 1.73 37.05 1.7 9.0 1214 SSE | 147 45.2 99 19 0.0 0.0 1.6 92.5 7.42 0.00 60 - - - - - - - - - 12.3
4/20/24 76.7 1455 43.5 0645 0.00 1.73 37.05 3.5 18.6 1550 NW | 324 39.9 94 17 0.0 0.0 0.0 74.2 7.94 0.00 40 - - - - - - - - - 12.3
4/19/24 80.6 1612 43.9 0501 0.00 1.73 37.05 2.4 16.2 1728 NW | 322 47.4 99 28 0.0 0.0 5.9 95.1 7.77 0.00 20 - - - - - - - - - 12.4
Max 90.4 - 50.0 - 1.03 1.75 38.10 6.6 28.5 - - 55.6 100 71 0.0 0.0 9.7 208.4 10.99 0.00 - - 2.25 - 0.02 - 0.15 - 0.27 - 12.4
Avg - - - - - - - 3.3 - - - 45.1 - - 0.0 0.0 - - 4.37 0.00 - - - - - - - - - - -
Min 53.8 - 32.1 - 0.00 0.00 37.05 1.6 9.0 - - 36.5 85 15 0.0 0.0 0.0 0.0 0.00 0.00 - - 0.01 - 0.01 - 0.01 - 0.01 - 12.2
Total - - - - - - - - - - - - - - 0.0 0.0 - - 131.15 0.00 - - - - - - - - - - -

Last 7 Days

Upper Lake

Hourly Data | America/Los_Angeles
as of 5/19/24 7:51 AM PDT
Date & Time Temp (°F) RH (%) Dew Pt (°F) Wet Bulb (°F) Wind Dir (°) Wind Spd (mph) Wind Gust (mph) Heat Index (°F) Leaf Wet (mins) BatVolt (V) Latest Rain (In) Daily Rain (In) Daily Min Temp (°F) Daily Max Temp (°F) Daily Max Wind (mph) Daily Leaf Wet (Hrs)
5/19/24 - 0700 44.0 93 42.2 43.5 E | 93 1.0 5.5 - 0.0 12.5 0.00 0.00 42.9 60.0 17.2 0.0
5/19/24 - 0600 44.8 91 42.4 44.0 SE | 136 0.9 3.9 - 0.0 12.4 0.00 0.00 43.5 60.0 17.2 0.0
5/19/24 - 0500 48.9 80 43.0 46.4 S | 186 1.5 7.1 - 0.0 12.5 0.00 0.00 46.7 60.0 17.2 0.0
5/19/24 - 0400 54.4 64 42.2 48.5 NNW | 342 3.5 11.1 - 0.0 12.5 0.00 0.00 51.5 60.0 17.2 0.0
5/19/24 - 0300 55.1 64 43.3 49.3 NNW | 345 3.7 17.2 - 0.0 12.5 0.00 0.00 52.7 60.0 17.2 0.0
5/19/24 - 0200 58.4 57 43.3 50.7 NNW | 329 4.6 14.8 - 0.0 12.5 0.00 0.00 55.5 60.0 14.8 0.0
5/19/24 - 0100 60.7 53 43.6 51.8 NW | 323 4.5 13.2 - 0.0 12.5 0.00 0.00 50.0 82.9 18.5 5.9
5/19/24 - 0000 62.8 51 44.4 52.9 NW | 324 4.1 16.1 - 0.0 12.5 0.00 0.00 50.0 82.9 18.5 5.9
5/18/24 - 2300 64.9 48 45.0 53.9 NW | 320 4.6 14.2 - 0.0 12.6 0.00 0.00 50.0 82.9 18.5 5.9
5/18/24 - 2200 66.5 47 45.5 54.7 NW | 317 4.2 12.0 - 0.0 12.6 0.00 0.00 50.0 82.9 18.5 5.9
5/18/24 - 2100 69.1 44 46.3 55.9 WNW | 294 5.1 13.5 - 0.0 12.7 0.00 0.00 50.0 82.9 18.5 5.9
5/18/24 - 2000 72.6 41 47.6 57.6 WNW | 302 5.6 18.5 - 0.0 12.9 0.00 0.00 50.0 82.9 18.5 5.9
5/18/24 - 1900 76.1 41 51.0 60.3 NW | 308 4.7 14.2 - 0.0 13.1 0.00 0.00 50.0 82.9 15.8 5.9
5/18/24 - 1800 79.0 40 52.4 61.7 NW | 314 5.5 14.8 - 0.0 13.1 0.00 0.00 50.0 82.9 15.8 5.9
5/18/24 - 1700 80.9 40 54.6 63.4 WNW | 301 5.2 14.6 - 0.0 13.0 0.00 0.00 50.0 82.9 15.8 5.9
5/18/24 - 1600 81.9 44 57.8 65.5 WNW | 291 4.3 14.5 - 0.0 13.0 0.00 0.00 50.0 82.9 15.8 5.9
5/18/24 - 1500 81.9 44 57.9 65.6 WNW | 299 5.0 15.8 - 0.0 13.1 0.00 0.00 50.0 82.8 15.8 5.9
5/18/24 - 1400 80.6 49 59.4 66.4 WNW | 293 5.2 14.6 81.2 0.0 13.1 0.00 0.00 50.0 81.8 14.6 5.9
5/18/24 - 1300 80.4 51 60.7 67.2 SSW | 204 3.4 11.0 81.3 0.0 13.1 0.00 0.00 50.0 81.5 11.0 5.9
5/18/24 - 1200 77.9 54 59.7 66.1 S | 189 2.9 8.9 - 0.0 13.1 0.00 0.00 50.0 80.0 8.9 5.9
5/18/24 - 1100 74.8 57 58.5 64.7 SW | 224 2.0 6.0 - 0.0 13.1 0.00 0.00 50.0 77.0 6.0 5.9
5/18/24 - 1000 70.7 64 57.7 63.2 SW | 234 1.4 5.4 - 0.0 12.8 0.00 0.00 50.0 73.5 5.4 5.9
5/18/24 - 0900 64.3 79 57.5 61.3 SSW | 203 1.2 4.8 - 0.0 12.6 0.00 0.00 50.0 67.5 4.8 5.9
5/18/24 - 0800 55.0 98 54.6 56.0 ESE | 116 0.4 2.8 - 27.6 12.5 0.00 0.00 50.0 59.0 2.8 5.9
5/18/24 - 0700 50.9 98 50.3 51.4 SSE | 158 0.1 2.1 - 60.0 12.5 0.00 0.00 50.0 55.2 2.7 5.5
5/18/24 - 0600 50.4 97 49.7 50.8 WNW | 300 0.3 1.9 - 60.0 12.4 0.00 0.00 50.0 55.2 2.7 4.5
5/18/24 - 0500 51.3 97 50.5 51.8 N | 359 0.4 2.4 - 60.0 12.4 0.00 0.00 50.2 55.2 2.7 3.5
5/18/24 - 0400 52.3 97 51.4 52.8 NNW | 339 0.3 2.7 - 60.0 12.5 0.00 0.00 51.7 55.2 2.7 2.5
5/18/24 - 0300 53.4 96 52.3 53.8 WNW | 292 0.3 1.9 - 60.0 12.5 0.00 0.00 52.6 55.2 1.9 1.5
5/18/24 - 0200 54.2 95 53.0 54.6 NW | 316 0.6 1.6 - 27.6 12.5 0.00 0.00 53.8 55.2 1.6 0.5
5/18/24 - 0100 55.7 94 54.2 56.0 NW | 319 0.3 1.5 - 0.0 12.5 0.00 0.00 48.2 85.7 13.2 6.1
5/18/24 - 0000 57.4 93 55.3 57.5 NW | 318 0.7 2.1 - 0.0 12.5 0.00 0.00 48.2 85.7 13.2 6.1
5/17/24 - 2300 59.7 89 56.4 59.0 NNW | 329 1.2 3.6 - 0.0 12.6 0.00 0.00 48.2 85.7 13.2 6.1
5/17/24 - 2200 64.3 79 57.7 61.4 NW | 322 1.1 3.9 - 0.0 12.6 0.00 0.00 48.2 85.7 13.2 6.1
5/17/24 - 2100 72.1 60 57.1 63.1 NW | 304 2.1 13.2 - 0.0 12.7 0.00 0.00 48.2 85.7 13.2 6.1
5/17/24 - 2000 76.8 53 58.2 64.9 WNW | 298 4.0 12.0 - 0.0 12.8 0.00 0.00 48.2 85.7 12.0 6.1
5/17/24 - 1900 81.3 48 59.7 66.7 WNW | 303 3.5 10.2 - 0.0 13.1 0.00 0.00 48.2 85.7 10.3 6.1
5/17/24 - 1800 83.7 46 60.5 67.6 WNW | 297 3.3 10.3 - 0.0 13.0 0.00 0.00 48.2 85.7 10.3 6.1
5/17/24 - 1700 84.6 45 61.2 68.1 WNW | 286 3.0 10.3 - 0.0 13.0 0.00 0.00 48.2 85.7 10.3 6.1
5/17/24 - 1600 84.3 46 61.3 68.2 W | 263 2.7 7.3 - 0.0 13.0 0.00 0.00 48.2 85.3 9.8 6.1
5/17/24 - 1500 83.3 43 58.6 66.2 SSE | 150 3.0 7.7 - 0.0 13.1 0.00 0.00 48.2 84.5 9.8 6.1
5/17/24 - 1400 81.5 46 58.7 66.1 SE | 141 4.1 9.8 - 0.0 13.1 0.00 0.00 48.2 83.0 9.8 6.1
5/17/24 - 1300 79.4 51 59.7 66.4 SE | 132 3.7 9.0 - 0.0 13.1 0.00 0.00 48.2 81.0 9.0 6.1
5/17/24 - 1200 76.6 52 57.8 64.6 S | 180 2.2 6.8 - 0.0 13.1 0.00 0.00 48.2 79.0 6.8 6.1
5/17/24 - 1100 72.8 57 56.9 63.2 SSE | 162 2.2 6.1 - 0.0 13.1 0.00 0.00 48.2 76.1 6.8 6.1
5/17/24 - 1000 67.8 64 55.3 60.8 S | 169 1.8 6.8 - 0.0 12.8 0.00 0.00 48.2 70.1 6.8 6.1
5/17/24 - 0900 62.6 77 55.3 59.3 S | 173 1.2 4.8 - 0.0 12.6 0.00 0.00 48.2 65.8 4.8 6.1
5/17/24 - 0800 54.6 97 53.9 55.4 S | 191 0.9 4.5 - 33.2 12.5 0.00 0.00 48.2 59.4 4.5 6.1
5/17/24 - 0700 49.3 98 48.7 49.8 NW | 322 0.5 2.6 - 60.0 12.4 0.00 0.00 48.2 53.1 3.7 5.5
5/17/24 - 0600 49.2 97 48.5 49.6 NNW | 340 0.6 2.7 - 60.0 12.4 0.00 0.00 48.2 53.1 3.7 4.5
5/17/24 - 0500 50.0 97 49.2 50.4 NW | 316 0.8 3.7 - 60.0 12.5 0.00 0.00 48.9 53.1 3.7 3.5
5/17/24 - 0400 50.3 97 49.4 50.6 S | 173 0.3 2.1 - 60.0 12.5 0.00 0.00 48.9 53.1 2.8 2.5
5/17/24 - 0300 51.2 96 50.2 51.5 NNW | 333 0.6 2.8 - 60.0 12.5 0.00 0.00 50.4 53.1 2.8 1.5
5/17/24 - 0200 51.9 95 50.5 52.0 NNW | 328 0.4 2.5 - 30.9 12.5 0.00 0.00 51.0 53.1 2.5 0.5
5/17/24 - 0100 54.5 94 52.7 54.5 WNW | 283 0.5 3.3 - 0.0 12.5 0.00 0.00 48.4 83.5 15.0 4.7
5/17/24 - 0000 57.1 90 54.4 56.7 NW | 305 0.7 3.3 - 0.0 12.5 0.00 0.00 48.4 83.5 15.0 4.7
5/16/24 - 2300 62.5 76 54.9 58.9 N | 351 1.0 8.1 - 0.0 12.6 0.00 0.00 48.4 83.5 15.0 4.7
5/16/24 - 2200 66.8 66 54.9 60.3 WNW | 298 2.9 10.3 - 0.0 12.6 0.00 0.00 48.4 83.5 15.0 4.7
5/16/24 - 2100 69.6 61 55.6 61.5 WNW | 292 3.9 12.8 - 0.0 12.7 0.00 0.00 48.4 83.5 15.0 4.7
5/16/24 - 2000 74.0 55 56.7 63.3 WNW | 299 4.3 11.4 - 0.0 12.8 0.00 0.00 48.4 83.5 15.0 4.7
5/16/24 - 1900 78.0 51 58.5 65.3 WNW | 301 4.5 12.5 - 0.0 13.1 0.00 0.00 48.4 83.5 15.0 4.7
5/16/24 - 1800 80.8 47 58.5 65.8 NW | 307 4.3 13.6 - 0.0 13.1 0.00 0.00 48.4 83.5 15.0 4.7
5/16/24 - 1700 82.4 47 60.1 67.1 NW | 306 4.1 11.6 - 0.0 13.0 0.00 0.00 48.4 83.5 15.0 4.7
5/16/24 - 1600 82.5 45 59.3 66.6 WNW | 293 4.9 15.0 - 0.0 13.0 0.00 0.00 48.4 83.5 15.0 4.7
5/16/24 - 1500 82.1 46 59.3 66.5 WNW | 286 5.3 13.7 - 0.0 13.1 0.00 0.00 48.4 83.4 13.7 4.7
5/16/24 - 1400 82.4 46 59.4 66.7 WNW | 287 3.8 10.6 - 0.0 13.1 0.00 0.00 48.4 83.4 10.6 4.7
5/16/24 - 1300 80.5 47 58.4 65.7 W | 268 3.6 9.2 - 0.0 13.1 0.00 0.00 48.4 82.2 9.2 4.7
5/16/24 - 1200 78.4 50 58.2 65.2 WSW | 242 2.9 8.8 - 0.0 13.1 0.00 0.00 48.4 79.7 8.8 4.7
5/16/24 - 1100 75.0 54 57.3 63.9 WSW | 250 2.9 7.9 - 0.0 13.1 0.00 0.00 48.4 77.4 8.3 4.7
5/16/24 - 1000 70.1 61 56.0 61.9 WSW | 258 3.4 8.3 - 0.0 12.8 0.00 0.00 48.4 72.6 8.3 4.7
5/16/24 - 0900 65.2 70 55.1 59.9 WSW | 248 1.7 7.3 - 0.0 12.6 0.00 0.00 48.4 67.7 7.3 4.7
5/16/24 - 0800 53.8 97 53.1 54.5 SSE | 159 0.4 2.4 - 36.0 12.5 0.00 0.00 48.4 59.7 3.1 4.7
5/16/24 - 0700 49.2 97 48.5 49.6 WNW | 294 0.3 1.8 - 60.0 12.5 0.00 0.00 48.4 54.7 3.1 4.1
5/16/24 - 0600 48.9 97 48.1 49.2 WSW | 250 0.1 2.1 - 60.0 12.4 0.00 0.00 48.4 54.7 3.1 3.1
5/16/24 - 0500 49.7 96 48.8 50.0 N | 355 0.1 1.4 - 60.0 12.4 0.00 0.00 48.8 54.7 3.1 2.1
5/16/24 - 0400 50.6 96 49.5 50.8 NNW | 341 0.3 2.0 - 60.0 12.5 0.00 0.00 50.0 54.7 3.1 1.1
5/16/24 - 0300 51.9 94 50.4 52.0 NW | 322 0.3 1.9 - 5.1 12.5 0.00 0.00 50.8 54.7 3.1 0.1
5/16/24 - 0200 53.7 94 52.0 53.8 W | 275 0.4 3.1 - 0.0 12.5 0.00 0.00 52.8 54.7 3.1 0.0
5/16/24 - 0100 54.6 93 52.6 54.5 WNW | 292 0.5 2.2 - 0.0 12.5 0.00 0.00 47.7 90.4 17.1 3.5
5/16/24 - 0000 56.7 90 53.7 56.1 NW | 316 0.6 3.1 - 0.0 12.5 0.00 0.00 47.7 90.4 17.1 3.5
5/15/24 - 2300 59.1 84 54.3 57.4 NW | 322 0.9 3.0 - 0.0 12.6 0.00 0.00 47.7 90.4 17.1 3.5
5/15/24 - 2200 61.8 79 55.1 58.9 NW | 315 1.2 2.8 - 0.0 12.6 0.00 0.00 47.7 90.4 17.1 3.5
5/15/24 - 2100 69.7 61 55.4 61.4 NW | 317 1.7 6.0 - 0.0 12.6 0.00 0.00 47.7 90.4 17.1 3.5
5/15/24 - 2000 76.7 51 56.7 63.9 WNW | 290 2.3 6.7 - 0.0 12.8 0.00 0.00 47.7 90.4 17.1 3.5
5/15/24 - 1900 84.5 32 51.1 62.1 NW | 305 3.0 12.5 - 0.0 13.1 0.00 0.00 47.7 90.4 17.1 3.5
5/15/24 - 1800 86.7 29 50.8 62.3 NW | 314 4.0 16.0 - 0.0 13.0 0.00 0.00 47.7 90.4 17.1 3.5
5/15/24 - 1700 88.6 30 53.1 63.8 NW | 306 3.9 17.1 - 0.0 13.0 0.00 0.00 47.7 90.4 17.1 3.5
5/15/24 - 1600 89.5 31 54.8 64.8 NW | 305 4.1 11.6 - 0.0 13.0 0.00 0.00 47.7 90.4 11.6 3.5
5/15/24 - 1500 89.0 32 55.2 65.0 WNW | 296 3.4 11.6 - 0.0 13.1 0.00 0.00 47.7 89.5 11.6 3.5
5/15/24 - 1400 87.3 36 57.1 65.8 SE | 135 4.3 9.5 - 0.0 13.1 0.00 0.00 47.7 88.5 9.5 3.5
5/15/24 - 1300 85.2 38 56.4 65.2 SE | 143 2.5 8.4 - 0.0 13.1 0.00 0.00 47.7 86.4 8.4 3.5
5/15/24 - 1200 81.9 41 56.2 64.5 S | 171 0.3 4.2 - 0.0 13.1 0.00 0.00 47.7 83.5 4.2 3.5
5/15/24 - 1100 77.4 46 55.3 63.1 ENE | 71 0.6 3.1 - 0.0 13.0 0.00 0.00 47.7 80.1 3.5 3.5
5/15/24 - 1000 71.7 57 55.9 62.2 ESE | 118 1.2 3.4 - 0.0 12.8 0.00 0.00 47.7 74.8 3.5 3.5
5/15/24 - 0900 65.1 71 55.4 60.1 ESE | 109 0.8 3.2 - 0.0 12.6 0.00 0.00 47.7 68.8 3.5 3.5
5/15/24 - 0800 53.9 97 53.0 54.4 NE | 44 0.2 2.5 - 21.9 12.5 0.00 0.00 47.7 59.4 3.5 3.5
5/15/24 - 0700 48.6 97 47.8 48.8 NNW | 345 0.4 2.8 - 60.0 12.4 0.00 0.00 47.7 53.7 3.5 3.1
5/15/24 - 0600 49.0 97 48.2 49.3 NNW | 339 0.7 3.5 - 60.0 12.4 0.00 0.00 48.0 53.7 3.5 2.1
5/15/24 - 0500 49.4 96 48.4 49.6 NNW | 333 0.3 2.2 - 60.0 12.4 0.00 0.00 48.8 53.7 2.6 1.1
5/15/24 - 0400 50.0 95 48.8 50.1 NNW | 340 0.4 2.4 - 7.5 12.5 0.00 0.00 49.2 53.7 2.6 0.1
5/15/24 - 0300 50.9 94 49.4 50.9 NW | 325 0.6 2.6 - 0.0 12.5 0.00 0.00 49.9 53.7 2.6 0.0
5/15/24 - 0200 52.4 92 50.1 52.0 N | 354 0.4 2.4 - 0.0 12.5 0.00 0.00 51.3 53.7 2.4 0.0
5/15/24 - 0100 54.2 89 51.0 53.3 NW | 320 0.5 3.4 - 0.0 12.5 0.00 0.00 45.3 87.9 11.7 6.3
5/15/24 - 0000 55.2 87 51.6 54.1 NW | 316 1.3 2.7 - 0.0 12.5 0.00 0.00 45.3 87.9 11.7 6.3
5/14/24 - 2300 56.8 86 52.5 55.3 NW | 320 1.4 3.1 - 0.0 12.6 0.00 0.00 45.3 87.9 11.7 6.3
5/14/24 - 2200 59.8 81 53.8 57.3 NW | 314 1.2 3.3 - 0.0 12.6 0.00 0.00 45.3 87.9 11.7 6.3
5/14/24 - 2100 67.7 63 54.4 60.2 NW | 320 1.2 5.3 - 0.0 12.6 0.00 0.00 45.3 87.9 11.7 6.3
5/14/24 - 2000 76.8 46 54.5 62.5 WNW | 294 2.2 7.7 - 0.0 12.8 0.00 0.00 45.3 87.9 11.7 6.3
5/14/24 - 1900 82.6 38 54.5 63.6 NW | 307 3.3 11.2 - 0.0 13.1 0.00 0.00 45.3 87.9 11.7 6.3
5/14/24 - 1800 84.9 37 55.9 64.8 NW | 305 4.0 11.5 - 0.0 13.0 0.00 0.00 45.3 87.9 11.7 6.3
5/14/24 - 1700 86.9 36 56.4 65.4 NW | 312 3.6 10.5 - 0.0 13.0 0.00 0.00 45.3 87.9 11.7 6.3
5/14/24 - 1600 87.0 34 55.2 64.7 NW | 315 3.4 8.9 - 0.0 13.0 0.00 0.00 45.3 87.8 11.7 6.3
5/14/24 - 1500 85.9 37 56.4 65.2 NW | 308 3.4 11.7 - 0.0 13.1 0.00 0.00 45.3 86.8 11.7 6.3
5/14/24 - 1400 83.9 40 57.3 65.5 S | 171 3.0 11.1 - 0.0 13.1 0.00 0.00 45.3 86.0 11.1 6.3
5/14/24 - 1300 81.1 41 55.0 63.6 SE | 145 2.6 7.0 - 0.0 13.1 0.00 0.00 45.3 83.1 7.5 6.3
5/14/24 - 1200 78.0 44 54.0 62.5 SE | 126 2.5 7.5 - 0.0 13.1 0.00 0.00 45.3 79.7 7.5 6.3
5/14/24 - 1100 74.0 53 55.9 62.8 SE | 137 1.4 4.2 - 0.0 13.1 0.00 0.00 45.3 76.8 4.2 6.3
5/14/24 - 1000 68.7 61 54.8 60.7 ESE | 112 1.1 3.6 - 0.6 12.8 0.00 0.00 45.3 71.9 3.7 6.3
5/14/24 - 0900 62.0 77 54.7 58.7 ESE | 109 1.2 3.7 - 0.0 12.6 0.00 0.00 45.3 65.6 3.7 6.3
5/14/24 - 0800 51.2 98 50.7 51.9 SE | 141 0.1 1.6 - 29.5 12.5 0.00 0.00 45.3 55.9 2.6 6.3
5/14/24 - 0700 46.2 98 45.6 46.5 ESE | 104 0.0 2.1 - 60.0 12.4 0.00 0.00 45.3 51.3 2.6 5.8
5/14/24 - 0600 46.6 97 45.9 46.8 NNE | 28 0.3 2.0 - 60.0 12.4 0.00 0.00 45.7 51.3 2.6 4.8
5/14/24 - 0500 47.3 97 46.5 47.4 NNW | 344 0.5 2.2 - 60.0 12.4 0.00 0.00 46.6 51.3 2.6 3.8
5/14/24 - 0400 48.4 97 47.6 48.7 N | 359 0.5 2.6 - 60.0 12.5 0.00 0.00 47.8 51.3 2.6 2.8
5/14/24 - 0300 49.3 96 48.2 49.4 NNW | 346 0.4 2.3 - 60.0 12.5 0.00 0.00 48.5 51.3 2.3 1.8
5/14/24 - 0200 50.4 95 49.1 50.5 NW | 324 0.6 2.3 - 49.7 12.5 0.00 0.00 49.4 51.3 2.3 0.8
5/14/24 - 0100 52.0 94 50.5 52.1 N | 353 0.4 2.3 - 0.0 12.5 0.00 0.00 41.5 85.0 11.7 4.5
5/14/24 - 0000 53.6 92 51.5 53.4 NW | 314 0.4 2.0 - 0.0 12.5 0.00 0.00 41.5 85.0 11.7 4.5
5/13/24 - 2300 55.8 87 52.0 54.6 NW | 314 0.3 2.5 - 0.0 12.6 0.00 0.00 41.5 85.0 11.7 4.5
5/13/24 - 2200 59.0 81 53.2 56.6 NW | 322 1.0 3.1 - 0.0 12.6 0.00 0.00 41.5 85.0 11.7 4.5
5/13/24 - 2100 68.5 58 52.5 59.2 NW | 317 1.4 8.1 - 0.0 12.7 0.00 0.00 41.5 85.0 11.7 4.5
5/13/24 - 2000 75.7 44 52.3 61.0 WNW | 298 3.6 10.0 - 0.0 12.8 0.00 0.00 41.5 85.0 11.7 4.5
5/13/24 - 1900 80.6 41 54.5 63.2 WNW | 296 3.9 10.3 - 0.0 13.1 0.00 0.00 41.5 85.0 11.7 4.5
5/13/24 - 1800 83.5 31 49.1 61.0 W | 274 3.3 11.7 - 0.0 13.1 0.00 0.00 41.5 85.0 11.7 4.5
5/13/24 - 1700 84.4 22 41.7 57.8 SE | 142 3.7 8.1 - 0.0 13.0 0.00 0.00 41.5 85.0 11.1 4.5
5/13/24 - 1600 83.9 19 37.6 56.3 SE | 136 4.4 9.4 - 0.0 13.0 0.00 0.00 41.5 84.4 11.1 4.5
5/13/24 - 1500 82.7 22 40.4 57.0 SE | 144 5.2 10.1 - 0.0 13.1 0.00 0.00 41.5 83.4 11.1 4.5
5/13/24 - 1400 80.8 33 48.7 60.2 SE | 138 5.4 11.1 - 0.0 13.1 0.00 0.00 41.5 82.5 11.1 4.5
5/13/24 - 1300 77.8 42 52.9 61.8 SE | 128 5.2 10.4 - 0.0 13.2 0.00 0.00 41.5 79.3 10.4 4.5
5/13/24 - 1200 74.6 45 51.6 60.3 ESE | 119 3.6 7.5 - 0.0 13.1 0.00 0.00 41.5 76.6 7.5 4.5
5/13/24 - 1100 71.1 47 49.9 58.4 SE | 125 2.7 7.1 - 0.0 13.1 0.00 0.00 41.5 72.8 7.1 4.5
5/13/24 - 1000 65.9 58 50.6 57.3 ESE | 122 1.9 5.2 - 0.0 12.8 0.00 0.00 41.5 69.0 5.2 4.5
5/13/24 - 0900 59.1 71 49.6 54.4 SE | 134 1.5 4.6 - 0.0 12.6 0.00 0.00 41.5 63.2 4.6 4.5
5/13/24 - 0800 47.4 97 46.6 47.6 NNE | 13 0.1 1.4 - 37.0 12.5 0.00 0.00 41.5 53.2 3.3 4.5
5/13/24 - 0700 42.6 97 41.9 42.6 N | 356 0.5 2.0 - 60.0 12.4 0.00 0.00 41.5 47.6 3.3 3.9
5/13/24 - 0600 42.6 97 41.7 42.4 NNE | 17 0.5 3.3 - 60.0 12.4 0.00 0.00 41.5 47.6 3.3 2.9
5/13/24 - 0500 43.5 96 42.5 43.3 NNW | 345 0.4 1.6 - 60.0 12.4 0.00 0.00 42.9 47.6 2.8 1.9
5/13/24 - 0400 44.1 95 42.8 43.8 NNW | 331 0.1 1.3 - 51.4 12.5 0.00 0.00 43.2 47.6 2.8 0.9
5/13/24 - 0300 45.6 94 44.0 45.2 NNW | 332 0.5 2.3 - 0.0 12.5 0.00 0.00 44.8 47.6 2.8 0.0
5/13/24 - 0200 46.8 92 44.7 46.2 NW | 320 0.5 2.8 - 0.0 12.5 0.00 0.00 45.8 47.6 2.8 0.0
5/13/24 - 0100 48.6 89 45.4 47.5 WNW | 285 0.2 2.1 - 0.0 12.5 0.00 0.00 43.8 83.4 13.8 5.0
5/13/24 - 0000 50.9 83 45.9 48.9 NW | 322 1.2 3.9 - 0.0 12.5 0.00 0.00 43.8 83.4 13.8 5.0
5/12/24 - 2300 52.1 81 46.4 49.7 NW | 324 1.3 3.7 - 0.0 12.6 0.00 0.00 43.8 83.4 13.8 5.0
5/12/24 - 2200 55.8 74 47.4 51.8 NW | 320 1.2 4.2 - 0.0 12.6 0.00 0.00 43.8 83.4 13.8 5.0
5/12/24 - 2100 65.3 49 45.3 54.2 NW | 319 1.5 6.4 - 0.0 12.7 0.00 0.00 43.8 83.4 13.8 5.0
5/12/24 - 2000 72.4 35 42.9 55.3 WNW | 299 3.5 12.1 - 0.0 12.8 0.00 0.00 43.8 83.4 13.8 5.0
5/12/24 - 1900 77.4 31 44.2 57.2 WNW | 301 4.5 13.8 - 0.0 13.1 0.00 0.00 43.8 83.4 13.8 5.0
5/12/24 - 1800 80.1 30 45.9 58.6 WNW | 298 4.9 12.7 - 0.0 13.1 0.00 0.00 43.8 83.4 12.8 5.0
5/12/24 - 1700 82.0 31 48.2 60.2 WNW | 298 4.4 11.6 - 0.0 13.0 0.00 0.00 43.8 83.4 12.8 5.0
5/12/24 - 1600 82.6 32 50.0 61.2 WNW | 296 4.0 12.1 - 0.0 13.0 0.00 0.00 43.8 83.4 12.8 5.0
5/12/24 - 1500 82.6 33 51.0 61.7 WNW | 297 4.0 11.5 - 0.0 13.1 0.00 0.00 43.8 83.4 12.8 5.0
5/12/24 - 1400 81.4 37 52.7 62.4 WNW | 292 4.4 11.5 - 0.0 13.1 0.00 0.00 43.8 82.7 12.8 5.0
5/12/24 - 1300 79.8 38 51.6 61.5 WNW | 287 4.5 11.7 - 0.0 13.1 0.00 0.00 43.8 81.5 12.8 5.0
5/12/24 - 1200 78.2 39 51.1 60.8 WNW | 283 4.7 12.8 - 0.0 13.1 0.00 0.00 43.8 79.1 12.8 5.0
5/12/24 - 1100 75.1 46 53.1 61.3 SSE | 160 2.4 9.3 - 0.0 13.1 0.00 0.00 43.8 77.8 9.3 5.0
5/12/24 - 1000 69.6 53 51.9 59.2 ESE | 112 1.3 3.4 - 0.0 12.8 0.00 0.00 43.8 72.4 4.3 5.0
5/12/24 - 0900 61.5 70 51.4 56.4 E | 87 1.7 4.3 - 0.0 12.6 0.00 0.00 43.8 66.3 4.3 5.0
5/12/24 - 0800 48.6 97 47.6 48.8 E | 84 0.1 1.8 - 36.0 12.5 0.00 0.00 43.8 55.9 3.3 5.0
Max 89.5 98 61.3 68.2 - 5.6 18.5 81.3 60.0 13.2 0.00 0.00 55.5 90.4 18.5 6.3
Avg 66.1 66 51.9 57.5 - 2.2 7.0 81.2 11.3 12.8 0.00 - - - - -
Min 42.6 19 37.6 42.4 - 0.0 1.3 81.2 0.0 12.4 0.00 0.00 41.5 47.6 1.6 0.0
Total - - - - - - - - - - 0.00 - - - - -

Chilling & Growing Degree Days

Upper Lake

Daily Data | America/Los_Angeles
as of 5/19/24 7:51 AM PDT
Date Chilling <=45F (hrs) Chill Hrs 32-45F (hrs) Utah Chilling (Units) GDDs (DL) GDDs (Mx/Mn) Seas GDDs (DL) Seas GDDs (Smpl)
5/18/24 0.0 0.0 -12.5 17.2 16.4 403 338
5/17/24 0.0 0.0 -10.0 16.8 16.9 386 321
5/16/24 0.0 0.0 -11.0 16.8 16.0 369 304
5/15/24 0.0 0.0 -10.0 18.4 19.0 353 288
5/14/24 0.0 0.0 -7.5 16.6 16.6 334 269
5/13/24 4.4 4.4 -4.0 15.0 13.3 318 253
5/12/24 2.4 2.4 -4.5 14.5 13.6 303 240
Max 4.4 4.4 -4.0 18.4 19.0 - -
Avg 1.0 1.0 -8.5 16.5 16.0 - -
Min 0.0 0.0 -12.5 14.5 13.3 - -
Total 6.8 6.8 -59.5 115.2 111.8 - -
Calm: 0.1%

Upper Lake Climate Summary

Current Year

Current Year | Showing 1/1/24 - 5/18/24
as of 5/19/24 7:51 AM PDT
Temperature (°F) Max Wind Gust (mph) Precip (in) Days
Month Days Avg High Avg Low Max Min Avg Max Total Daily Min Temp < 28 Daily Min Temp < 32 Daily Max Temp > 90 Daily Max Temp > 100 Daily Rain > 0.01 Daily Rain > 0.1
Jan 2024 31 55.5 37.7 71.3 26.6 14.6 28.7 10.28 2 5 0 0 15 14
Feb 2024 29 56.3 36 67.8 26.8 17.3 43.3 7.6 1 8 0 0 13 11
Mar 2024 31 59.1 36.1 75.3 29.4 17.6 25.9 5.47 0 4 0 0 17 15
Apr 2024 30 68.5 39.1 81.8 28 18.2 32 1.75 0 2 0 0 4 3
May 2024 18 77.6 42.1 90.4 32.1 16.8 25.1 1.03 0 0 1 0 1 1
Total 139 - - - - - - 26.13 3 19 1 0 50 44
Average 27.8 62.1 37.9 62.1 37.9 16.9 - 5.23 0.6 3.8 0.2 0 10 8.8
Maximum 31 77.6 42.1 90.4 - - 43.3 10.28 2 8 1 0 17 15
Minimum 18 55.5 36 - 26.6 - - 1.03 0 0 0 0 1 1

Upper Lake Climate Summary

Last Year

Last Year | Showing 1/1/23 - 12/31/23
as of 5/19/24 7:51 AM PDT
Temperature (°F) Max Wind Gust (mph) Precip (in) Days
Month Days Avg High Avg Low Max Min Avg Max Total Daily Min Temp < 28 Daily Min Temp < 32 Daily Max Temp > 90 Daily Max Temp > 100 Daily Rain > 0.01 Daily Rain > 0.1
Jan 2023 31 54.7 33.6 69 21.1 19.6 45.7 13.97 6 17 0 0 14 13
Feb 2023 28 54.7 28.6 72.9 21.6 17.6 35.2 4.99 11 23 0 0 12 7
Mar 2023 31 52.7 34.1 62.3 25.4 18.3 27.4 8.77 4 16 0 0 17 15
Apr 2023 30 67.3 37.9 88.3 28.5 19.5 28.9 0.93 0 5 0 0 5 3
May 2023 31 75.1 44.9 90.1 37.2 16.7 25.2 1.45 0 0 1 0 6 4
Jun 2023 30 83.6 48.4 99.6 36.6 16.9 26.3 0.05 0 0 6 0 1 0
Jul 2023 31 95.3 51.9 105.5 45.3 16.6 19.8 0 0 0 26 7 0 0
Aug 2023 31 91.9 53.6 102.8 44.5 16.3 30.7 0.02 0 0 21 3 1 0
Sep 2023 30 82.8 47.4 97 39.8 16 20.6 0.4 0 0 6 0 2 1
Oct 2023 31 75.8 40.3 91.9 26.7 13.4 28.2 1.25 3 6 3 0 4 3
Nov 2023 30 64.5 35.4 79.7 21.6 13.7 27.3 2.58 6 9 0 0 9 5
Dec 2023 31 57.1 36.3 66.4 26 10.6 20.5 7.72 4 12 0 0 13 11
Total 365 - - - - - - 42.13 34 88 63 10 84 62
Average 30.4 71.4 41.1 71.4 41.1 16.3 - 3.51 2.8 7.3 5.2 0.8 7 5.2
Maximum 31 95.3 53.6 105.5 - - 45.7 13.97 11 23 26 7 17 15
Minimum 28 52.7 28.6 - 21.1 - - 0 0 0 0 0 0 0

Climate Summary 2019

Upper Lake

1/1/2019 - 12/31/2019 | Showing 1/1/19 - 12/31/19
as of 5/19/24 7:51 AM PDT
Temperature (°F) Max Wind Gust (mph) Precip (in) Days
Month Days Avg High Avg Low Max Min Avg Max Total Daily Min Temp < 28 Daily Min Temp < 32 Daily Max Temp > 90 Daily Max Temp > 100 Daily Rain > 0.01 Daily Rain > 0.1
Jan 2019 31 57.8 36.4 71.8 24.8 13.7 26.4 9.44 3 9 0 0 11 11
Feb 2019 28 49.6 34 57.1 23 17.1 31 15.92 8 12 0 0 19 16
Mar 2019 31 59.4 37.1 74 27.9 14.7 26.8 6.68 1 4 0 0 15 11
Apr 2019 30 71.5 44.9 89.7 37.6 15 28.2 0.94 0 0 0 0 8 2
May 2019 31 73.7 44.5 86.5 35.8 14.6 20.2 3.63 0 0 0 0 9 5
Jun 2019 30 87.2 50.8 97 39.1 13.4 20.7 0.01 0 0 12 0 0 0
Jul 2019 31 89.9 53.2 97.5 47.9 13.4 17.4 0.03 0 0 17 0 1 0
Aug 2019 31 91.7 53.8 98.8 48 13.1 22.2 0.01 0 0 21 0 0 0
Sep 2019 30 83.1 46.8 97.4 33.5 13.6 25.8 0.24 0 0 11 0 3 1
Oct 2019 31 77 34.1 88.6 22.1 13.3 30.9 0.03 4 10 0 0 1 0
Nov 2019 30 69.8 32.5 82.9 23.7 12.4 37.9 1.66 6 15 0 0 3 3
Dec 2019 31 53.7 37.7 61.9 24 12.6 30.2 6.33 4 10 0 0 17 10
Total 365 - - - - - - 44.92 26 60 61 0 87 59
Average 30.4 72.2 42.2 72.2 42.2 13.9 - 3.74 2.2 5 5.1 0 7.2 4.9
Maximum 31 91.7 53.8 98.8 - - 37.9 15.92 8 15 21 0 19 16
Minimum 28 49.6 32.5 - 22.1 - - 0.01 0 0 0 0 0 0

Climate Summary 2018

Upper Lake

1/1/2018 - 12/31/2018 | Showing 1/1/18 - 12/31/18
as of 5/19/24 7:51 AM PDT
Temperature (°F) Max Wind Gust (mph) Precip (in) Days
Month Days Avg High Avg Low Max Min Avg Max Total Daily Min Temp < 28 Daily Min Temp < 32 Daily Max Temp > 90 Daily Max Temp > 100 Daily Rain > 0.01 Daily Rain > 0.1
Jan 2018 31 56.5 36.2 69.7 27.7 - - 5.62 2 8 0 0 13 9
Feb 2018 28 62.4 29.1 78.7 20.6 - - 0.9 13 19 0 0 3 2
Mar 2018 31 60.7 34 83.7 24.1 - - 5.7 3 11 0 0 16 13
Apr 2018 30 69 39.5 84.5 30.2 15.1 20.4 4.78 0 1 0 0 8 5
May 2018 31 77.9 45.3 92.1 35.3 14.7 25.2 0.26 0 0 1 0 2 1
Jun 2018 30 86.3 47.6 97.4 37.7 14.3 20.5 0 0 0 11 0 0 0
Jul 2018 31 95.2 53.2 103.1 46.2 13.1 18.5 0 0 0 24 4 0 0
Aug 2018 31 90.9 50.3 97.2 46.6 13.3 18.7 0 0 0 18 0 0 0
Sep 2018 30 86.7 44.5 96.2 39.5 13 18.8 0 0 0 12 0 0 0
Oct 2018 31 77.7 40.7 85.6 31.9 11.6 20.7 1.25 0 1 0 0 4 3
Nov 2018 30 66.4 32.5 82.4 20.4 10 18.6 5.43 13 15 0 0 7 7
Dec 2018 31 55.2 33.6 63.7 26.1 13 27.1 3.34 4 14 0 0 12 7
Total 365 - - - - - - 27.28 35 69 66 4 65 47
Average 30.4 73.8 40.6 73.8 40.6 13 - 2.27 2.9 5.8 5.5 0.3 5.4 3.9
Maximum 31 95.2 53.2 103.1 - - 27.1 5.7 13 19 24 4 16 13
Minimum 28 55.2 29.1 - 20.4 - - 0 0 0 0 0 0 0

Climate Summary 2017

Upper Lake

1/1/2017 - 12/31/2017 | Showing 1/1/17 - 12/31/17
as of 5/19/24 7:51 AM PDT
Temperature (°F) Max Wind Gust (mph) Precip (in) Days
Month Days Avg High Avg Low Max Min Avg Max Total Daily Min Temp < 28 Daily Min Temp < 32 Daily Max Temp > 90 Daily Max Temp > 100 Daily Rain > 0.01 Daily Rain > 0.1
Jan 2017 31 51.8 32.4 63.8 20.8 - - 16.02 10 17 0 0 16 14
Feb 2017 27 55.9 37.8 69.2 24.2 - - 10.98 4 8 0 0 16 14
Mar 2017 31 64.5 38.3 80.1 26.3 - - 3.42 2 3 0 0 10 8
Apr 2017 30 65.8 40.3 83.8 31.1 - - 4.03 0 2 0 0 12 7
May 2017 31 80.5 45 96.1 36.6 - - 0 0 0 5 0 0 0
Jun 2017 30 87.6 51.4 104.7 39.8 - - 0.21 0 0 12 6 1 1
Jul 2017 31 94.1 52.3 99.3 47.3 - - 0 0 0 28 0 0 0
Aug 2017 31 95 54.2 103.7 47.6 - - 0 0 0 29 4 0 0
Sep 2017 30 85.6 48.4 104.2 33.9 - - 0.01 0 0 8 3 0 0
Oct 2017 31 79.2 36.3 90.6 27.2 - - 0.37 1 5 1 0 1 1
Nov 2017 30 59.3 38.3 70.8 25.9 - - 5.32 2 7 0 0 13 8
Dec 2017 31 60.1 27.5 71.2 21.7 - - 0.13 19 30 0 0 2 0
Total 364 - - - - - - 40.49 38 72 83 13 71 53
Average 30.3 73.5 41.9 73.5 41.9 - - 3.37 3.2 6 6.9 1.1 5.9 4.4
Maximum 31 95 54.2 104.7 - - - 16.02 19 30 29 6 16 14
Minimum 27 51.8 27.5 - 20.8 - - 0 0 0 0 0 0 0

Climate Summary 2016

Upper Lake

1/1/2016 - 12/31/2016 | Showing 1/1/16 - 12/31/16
as of 5/19/24 7:51 AM PDT
Temperature (°F) Max Wind Gust (mph) Precip (in) Days
Month Days Avg High Avg Low Max Min Avg Max Total Daily Min Temp < 28 Daily Min Temp < 32 Daily Max Temp > 90 Daily Max Temp > 100 Daily Rain > 0.01 Daily Rain > 0.1
Jan 2016 31 52.2 38.2 63.8 20.4 - - 11.01 2 3 0 0 20 19
Feb 2016 29 66 36.2 79.5 29.8 - - 1.62 0 4 0 0 5 4
Mar 2016 31 62.5 38.9 77.5 30.1 - - 8.58 0 2 0 0 16 12
Apr 2016 30 71.2 40.1 85.2 32 - - 1.4 0 0 0 0 6 4
May 2016 31 77.7 45.9 96.8 39.9 - - 0.33 0 0 3 0 4 1
Jun 2016 30 87 48.5 99 42.7 - - 0.47 0 0 13 0 2 1
Jul 2016 31 91.9 50.2 102.3 42.3 - - 0 0 0 18 4 0 0
Aug 2016 31 93.4 49.3 99.5 42.9 - - 0 0 0 26 0 0 0
Sep 2016 30 87.7 44.5 97.4 38.2 - - 0 0 0 12 0 0 0
Oct 2016 31 68.7 43.5 87.2 34.3 - - 6.53 0 0 0 0 14 13
Nov 2016 30 62.6 37.8 76.1 27.3 - - 4.27 3 5 0 0 13 6
Dec 2016 31 53.5 29.6 65.6 19.9 - - 7.22 14 23 0 0 8 7
Total 366 - - - - - - 41.43 19 37 72 4 88 67
Average 30.5 72.9 41.9 72.9 41.9 - - 3.45 1.6 3.1 6 0.3 7.3 5.6
Maximum 31 93.4 50.2 102.3 - - - 11.01 14 23 26 4 20 19
Minimum 29 52.2 29.6 - 19.9 - - 0 0 0 0 0 0 0